sensor_id;sensor_type;location;lat;lon;timestamp;P1;durP1;ratioP1;P2;durP2;ratioP2
39156;SDS011;24889;42.424;25.604;2022-08-27T00:00:50;23.85;;;5.10;;
39156;SDS011;24889;42.424;25.604;2022-08-27T00:03:15;21.30;;;4.63;;
39156;SDS011;24889;42.424;25.604;2022-08-27T00:05:42;12.35;;;4.68;;
39156;SDS011;24889;42.424;25.604;2022-08-27T00:08:08;10.63;;;5.00;;
39156;SDS011;24889;42.424;25.604;2022-08-27T00:10:36;15.80;;;4.47;;
39156;SDS011;24889;42.424;25.604;2022-08-27T00:13:02;17.73;;;4.78;;
39156;SDS011;24889;42.424;25.604;2022-08-27T00:17:53;17.10;;;5.18;;
39156;SDS011;24889;42.424;25.604;2022-08-27T00:20:20;24.27;;;5.63;;
39156;SDS011;24889;42.424;25.604;2022-08-27T00:22:47;24.30;;;4.70;;
39156;SDS011;24889;42.424;25.604;2022-08-27T00:27:39;11.85;;;4.75;;
39156;SDS011;24889;42.424;25.604;2022-08-27T00:30:05;19.20;;;5.30;;
39156;SDS011;24889;42.424;25.604;2022-08-27T00:32:32;11.38;;;5.00;;
39156;SDS011;24889;42.424;25.604;2022-08-27T00:34:58;9.35;;;3.95;;
39156;SDS011;24889;42.424;25.604;2022-08-27T00:37:23;15.65;;;4.30;;
39156;SDS011;24889;42.424;25.604;2022-08-27T00:39:49;10.40;;;4.28;;
39156;SDS011;24889;42.424;25.604;2022-08-27T00:42:15;10.70;;;4.25;;
39156;SDS011;24889;42.424;25.604;2022-08-27T00:44:40;24.27;;;5.70;;
39156;SDS011;24889;42.424;25.604;2022-08-27T00:47:10;17.27;;;4.97;;
39156;SDS011;24889;42.424;25.604;2022-08-27T00:52:21;20.33;;;5.25;;
39156;SDS011;24889;42.424;25.604;2022-08-27T00:54:52;11.18;;;4.82;;
39156;SDS011;24889;42.424;25.604;2022-08-27T00:57:22;11.05;;;4.15;;
39156;SDS011;24889;42.424;25.604;2022-08-27T00:59:49;18.40;;;4.47;;
39156;SDS011;24889;42.424;25.604;2022-08-27T01:02:14;14.73;;;4.25;;
39156;SDS011;24889;42.424;25.604;2022-08-27T01:04:44;12.52;;;4.57;;
39156;SDS011;24889;42.424;25.604;2022-08-27T01:07:11;11.50;;;4.70;;
39156;SDS011;24889;42.424;25.604;2022-08-27T01:09:38;13.85;;;4.45;;
39156;SDS011;24889;42.424;25.604;2022-08-27T01:12:07;12.75;;;4.78;;
39156;SDS011;24889;42.424;25.604;2022-08-27T01:16:58;12.13;;;4.55;;
39156;SDS011;24889;42.424;25.604;2022-08-27T01:19:28;20.27;;;4.95;;
39156;SDS011;24889;42.424;25.604;2022-08-27T01:22:04;16.45;;;5.13;;
39156;SDS011;24889;42.424;25.604;2022-08-27T01:24:38;14.77;;;5.10;;
39156;SDS011;24889;42.424;25.604;2022-08-27T01:27:07;14.13;;;5.07;;
39156;SDS011;24889;42.424;25.604;2022-08-27T01:29:34;18.25;;;4.72;;
39156;SDS011;24889;42.424;25.604;2022-08-27T01:32:05;15.63;;;4.90;;
39156;SDS011;24889;42.424;25.604;2022-08-27T01:34:34;14.07;;;5.30;;
39156;SDS011;24889;42.424;25.604;2022-08-27T01:37:01;15.35;;;5.30;;
39156;SDS011;24889;42.424;25.604;2022-08-27T01:39:26;30.95;;;6.13;;
39156;SDS011;24889;42.424;25.604;2022-08-27T01:41:52;16.90;;;5.25;;
39156;SDS011;24889;42.424;25.604;2022-08-27T01:44:17;14.30;;;5.07;;
39156;SDS011;24889;42.424;25.604;2022-08-27T01:46:43;14.10;;;5.25;;
39156;SDS011;24889;42.424;25.604;2022-08-27T01:49:09;10.60;;;4.53;;
39156;SDS011;24889;42.424;25.604;2022-08-27T01:51:35;17.30;;;4.63;;
39156;SDS011;24889;42.424;25.604;2022-08-27T01:54:01;15.57;;;4.95;;
39156;SDS011;24889;42.424;25.604;2022-08-27T01:56:27;19.58;;;4.95;;
39156;SDS011;24889;42.424;25.604;2022-08-27T01:58:53;14.70;;;4.72;;
39156;SDS011;24889;42.424;25.604;2022-08-27T02:01:18;26.60;;;5.32;;
39156;SDS011;24889;42.424;25.604;2022-08-27T02:03:44;14.25;;;4.50;;
39156;SDS011;24889;42.424;25.604;2022-08-27T02:06:11;12.57;;;4.38;;
39156;SDS011;24889;42.424;25.604;2022-08-27T02:08:37;14.13;;;5.00;;
39156;SDS011;24889;42.424;25.604;2022-08-27T02:11:03;18.27;;;4.55;;
39156;SDS011;24889;42.424;25.604;2022-08-27T02:13:28;13.60;;;4.55;;
39156;SDS011;24889;42.424;25.604;2022-08-27T02:15:54;17.27;;;4.95;;
39156;SDS011;24889;42.424;25.604;2022-08-27T02:18:19;18.00;;;5.60;;
39156;SDS011;24889;42.424;25.604;2022-08-27T02:20:45;18.23;;;5.57;;
39156;SDS011;24889;42.424;25.604;2022-08-27T02:23:12;14.23;;;5.22;;
39156;SDS011;24889;42.424;25.604;2022-08-27T02:25:38;24.50;;;5.43;;
39156;SDS011;24889;42.424;25.604;2022-08-27T02:28:05;17.83;;;5.28;;
39156;SDS011;24889;42.424;25.604;2022-08-27T02:30:32;21.08;;;5.25;;
39156;SDS011;24889;42.424;25.604;2022-08-27T02:32:59;22.50;;;5.97;;
39156;SDS011;24889;42.424;25.604;2022-08-27T02:35:25;21.13;;;5.20;;
39156;SDS011;24889;42.424;25.604;2022-08-27T02:37:51;14.07;;;5.68;;
39156;SDS011;24889;42.424;25.604;2022-08-27T02:40:18;22.50;;;5.10;;
39156;SDS011;24889;42.424;25.604;2022-08-27T02:42:45;14.70;;;5.35;;
39156;SDS011;24889;42.424;25.604;2022-08-27T02:45:11;19.88;;;5.47;;
39156;SDS011;24889;42.424;25.604;2022-08-27T02:47:38;22.42;;;5.22;;
39156;SDS011;24889;42.424;25.604;2022-08-27T02:50:04;18.70;;;4.45;;
39156;SDS011;24889;42.424;25.604;2022-08-27T02:54:55;14.23;;;5.22;;
39156;SDS011;24889;42.424;25.604;2022-08-27T02:57:21;22.60;;;5.45;;
39156;SDS011;24889;42.424;25.604;2022-08-27T02:59:47;12.70;;;4.47;;
39156;SDS011;24889;42.424;25.604;2022-08-27T03:02:13;21.42;;;5.28;;
39156;SDS011;24889;42.424;25.604;2022-08-27T03:04:39;21.48;;;5.63;;
39156;SDS011;24889;42.424;25.604;2022-08-27T03:07:05;13.13;;;5.05;;
39156;SDS011;24889;42.424;25.604;2022-08-27T03:09:31;14.57;;;4.93;;
39156;SDS011;24889;42.424;25.604;2022-08-27T03:14:23;27.67;;;4.95;;
39156;SDS011;24889;42.424;25.604;2022-08-27T03:16:48;17.00;;;4.95;;
39156;SDS011;24889;42.424;25.604;2022-08-27T03:19:14;21.30;;;4.63;;
39156;SDS011;24889;42.424;25.604;2022-08-27T03:21:39;16.52;;;5.28;;
39156;SDS011;24889;42.424;25.604;2022-08-27T03:24:05;17.05;;;5.15;;
39156;SDS011;24889;42.424;25.604;2022-08-27T03:26:31;16.80;;;4.40;;
39156;SDS011;24889;42.424;25.604;2022-08-27T03:28:57;15.25;;;5.20;;
39156;SDS011;24889;42.424;25.604;2022-08-27T03:31:24;14.63;;;4.72;;
39156;SDS011;24889;42.424;25.604;2022-08-27T03:33:56;12.95;;;5.75;;
39156;SDS011;24889;42.424;25.604;2022-08-27T03:36:27;19.23;;;5.73;;
39156;SDS011;24889;42.424;25.604;2022-08-27T03:38:54;12.45;;;5.47;;
39156;SDS011;24889;42.424;25.604;2022-08-27T03:41:21;15.20;;;5.65;;
39156;SDS011;24889;42.424;25.604;2022-08-27T03:43:47;19.00;;;5.65;;
39156;SDS011;24889;42.424;25.604;2022-08-27T03:46:13;15.68;;;4.55;;
39156;SDS011;24889;42.424;25.604;2022-08-27T03:48:41;15.88;;;5.55;;
39156;SDS011;24889;42.424;25.604;2022-08-27T03:51:11;21.23;;;5.32;;
39156;SDS011;24889;42.424;25.604;2022-08-27T03:53:39;20.27;;;5.57;;
39156;SDS011;24889;42.424;25.604;2022-08-27T03:56:07;11.80;;;4.45;;
39156;SDS011;24889;42.424;25.604;2022-08-27T03:58:34;15.18;;;5.43;;
39156;SDS011;24889;42.424;25.604;2022-08-27T04:01:00;21.13;;;5.47;;
39156;SDS011;24889;42.424;25.604;2022-08-27T04:03:26;14.38;;;4.88;;
39156;SDS011;24889;42.424;25.604;2022-08-27T04:05:53;22.55;;;5.28;;
39156;SDS011;24889;42.424;25.604;2022-08-27T04:08:20;15.02;;;5.35;;
39156;SDS011;24889;42.424;25.604;2022-08-27T04:10:47;12.88;;;4.10;;
39156;SDS011;24889;42.424;25.604;2022-08-27T04:13:14;19.17;;;5.90;;
39156;SDS011;24889;42.424;25.604;2022-08-27T04:15:42;16.30;;;5.78;;
39156;SDS011;24889;42.424;25.604;2022-08-27T04:18:08;16.35;;;5.57;;
39156;SDS011;24889;42.424;25.604;2022-08-27T04:20:34;16.13;;;5.68;;
39156;SDS011;24889;42.424;25.604;2022-08-27T04:22:59;11.05;;;4.63;;
39156;SDS011;24889;42.424;25.604;2022-08-27T04:25:25;17.80;;;5.13;;
39156;SDS011;24889;42.424;25.604;2022-08-27T04:27:50;17.83;;;4.63;;
39156;SDS011;24889;42.424;25.604;2022-08-27T04:30:16;14.57;;;4.75;;
39156;SDS011;24889;42.424;25.604;2022-08-27T04:32:43;17.70;;;5.25;;
39156;SDS011;24889;42.424;25.604;2022-08-27T04:35:08;17.48;;;4.18;;
39156;SDS011;24889;42.424;25.604;2022-08-27T04:37:35;14.38;;;4.70;;
39156;SDS011;24889;42.424;25.604;2022-08-27T04:40:03;14.80;;;5.78;;
39156;SDS011;24889;42.424;25.604;2022-08-27T04:42:29;22.98;;;5.78;;
39156;SDS011;24889;42.424;25.604;2022-08-27T04:47:20;17.85;;;4.93;;
39156;SDS011;24889;42.424;25.604;2022-08-27T04:49:46;13.98;;;5.10;;
39156;SDS011;24889;42.424;25.604;2022-08-27T04:54:37;19.30;;;5.45;;
39156;SDS011;24889;42.424;25.604;2022-08-27T04:59:30;14.25;;;5.90;;
39156;SDS011;24889;42.424;25.604;2022-08-27T05:01:56;22.30;;;5.97;;
39156;SDS011;24889;42.424;25.604;2022-08-27T05:04:22;20.48;;;5.30;;
39156;SDS011;24889;42.424;25.604;2022-08-27T05:06:47;16.98;;;6.80;;
39156;SDS011;24889;42.424;25.604;2022-08-27T05:09:15;20.90;;;6.15;;
39156;SDS011;24889;42.424;25.604;2022-08-27T05:11:42;18.10;;;5.97;;
39156;SDS011;24889;42.424;25.604;2022-08-27T05:14:08;15.13;;;5.72;;
39156;SDS011;24889;42.424;25.604;2022-08-27T05:16:35;16.83;;;6.75;;
39156;SDS011;24889;42.424;25.604;2022-08-27T05:21:30;12.85;;;5.18;;
39156;SDS011;24889;42.424;25.604;2022-08-27T05:23:59;18.52;;;5.93;;
39156;SDS011;24889;42.424;25.604;2022-08-27T05:26:27;21.35;;;5.78;;
39156;SDS011;24889;42.424;25.604;2022-08-27T05:28:54;23.50;;;6.20;;
39156;SDS011;24889;42.424;25.604;2022-08-27T05:31:22;21.45;;;5.95;;
39156;SDS011;24889;42.424;25.604;2022-08-27T05:33:47;22.08;;;7.22;;
39156;SDS011;24889;42.424;25.604;2022-08-27T05:36:15;14.68;;;6.60;;
39156;SDS011;24889;42.424;25.604;2022-08-27T05:38:42;24.67;;;6.10;;
39156;SDS011;24889;42.424;25.604;2022-08-27T05:41:09;15.63;;;5.15;;
39156;SDS011;24889;42.424;25.604;2022-08-27T05:43:37;18.70;;;5.72;;
39156;SDS011;24889;42.424;25.604;2022-08-27T05:46:06;19.90;;;5.90;;
39156;SDS011;24889;42.424;25.604;2022-08-27T05:48:34;14.52;;;5.50;;
39156;SDS011;24889;42.424;25.604;2022-08-27T05:51:13;19.65;;;5.78;;
39156;SDS011;24889;42.424;25.604;2022-08-27T05:54:11;13.57;;;4.60;;
39156;SDS011;24889;42.424;25.604;2022-08-27T05:56:42;23.40;;;5.13;;
39156;SDS011;24889;42.424;25.604;2022-08-27T05:59:08;22.90;;;5.53;;
39156;SDS011;24889;42.424;25.604;2022-08-27T06:01:52;13.82;;;4.68;;
39156;SDS011;24889;42.424;25.604;2022-08-27T06:04:19;19.75;;;5.30;;
39156;SDS011;24889;42.424;25.604;2022-08-27T06:06:46;10.43;;;4.30;;
39156;SDS011;24889;42.424;25.604;2022-08-27T06:09:14;17.20;;;4.57;;
39156;SDS011;24889;42.424;25.604;2022-08-27T06:11:41;14.68;;;5.00;;
39156;SDS011;24889;42.424;25.604;2022-08-27T06:14:07;18.50;;;5.32;;
39156;SDS011;24889;42.424;25.604;2022-08-27T06:18:59;22.50;;;4.90;;
39156;SDS011;24889;42.424;25.604;2022-08-27T06:21:24;16.08;;;5.30;;
39156;SDS011;24889;42.424;25.604;2022-08-27T06:23:50;14.18;;;4.95;;
39156;SDS011;24889;42.424;25.604;2022-08-27T06:26:17;25.48;;;5.45;;
39156;SDS011;24889;42.424;25.604;2022-08-27T06:28:44;18.80;;;5.00;;
39156;SDS011;24889;42.424;25.604;2022-08-27T06:33:41;22.50;;;6.38;;
39156;SDS011;24889;42.424;25.604;2022-08-27T06:36:10;29.15;;;8.57;;
39156;SDS011;24889;42.424;25.604;2022-08-27T06:38:37;22.70;;;8.57;;
39156;SDS011;24889;42.424;25.604;2022-08-27T06:41:03;22.63;;;8.25;;
39156;SDS011;24889;42.424;25.604;2022-08-27T06:43:30;28.88;;;8.27;;
39156;SDS011;24889;42.424;25.604;2022-08-27T06:45:56;24.52;;;6.97;;
39156;SDS011;24889;42.424;25.604;2022-08-27T06:48:23;44.50;;;9.20;;
39156;SDS011;24889;42.424;25.604;2022-08-27T06:50:48;29.05;;;8.32;;
39156;SDS011;24889;42.424;25.604;2022-08-27T06:53:14;25.95;;;8.00;;
39156;SDS011;24889;42.424;25.604;2022-08-27T06:55:43;33.72;;;9.10;;
39156;SDS011;24889;42.424;25.604;2022-08-27T06:58:16;29.70;;;8.63;;
39156;SDS011;24889;42.424;25.604;2022-08-27T07:00:43;27.00;;;7.47;;
39156;SDS011;24889;42.424;25.604;2022-08-27T07:03:09;25.88;;;8.13;;
39156;SDS011;24889;42.424;25.604;2022-08-27T07:05:37;30.20;;;8.25;;
39156;SDS011;24889;42.424;25.604;2022-08-27T07:08:07;29.35;;;8.45;;
39156;SDS011;24889;42.424;25.604;2022-08-27T07:10:33;22.83;;;7.25;;
39156;SDS011;24889;42.424;25.604;2022-08-27T07:15:24;26.65;;;9.38;;
39156;SDS011;24889;42.424;25.604;2022-08-27T07:17:51;27.23;;;8.70;;
39156;SDS011;24889;42.424;25.604;2022-08-27T07:25:10;28.75;;;8.05;;
39156;SDS011;24889;42.424;25.604;2022-08-27T07:27:38;23.38;;;8.38;;
39156;SDS011;24889;42.424;25.604;2022-08-27T07:30:05;24.10;;;7.57;;
39156;SDS011;24889;42.424;25.604;2022-08-27T07:32:32;18.50;;;7.50;;
39156;SDS011;24889;42.424;25.604;2022-08-27T07:37:23;24.43;;;7.80;;
39156;SDS011;24889;42.424;25.604;2022-08-27T07:42:14;16.73;;;6.00;;
39156;SDS011;24889;42.424;25.604;2022-08-27T07:44:58;22.75;;;7.72;;
39156;SDS011;24889;42.424;25.604;2022-08-27T07:49:49;16.63;;;7.00;;
39156;SDS011;24889;42.424;25.604;2022-08-27T07:54:41;16.30;;;7.10;;
39156;SDS011;24889;42.424;25.604;2022-08-27T07:57:08;17.80;;;6.45;;
39156;SDS011;24889;42.424;25.604;2022-08-27T07:59:34;19.80;;;6.63;;
39156;SDS011;24889;42.424;25.604;2022-08-27T08:04:25;18.52;;;5.20;;
39156;SDS011;24889;42.424;25.604;2022-08-27T08:09:17;27.52;;;7.15;;
39156;SDS011;24889;42.424;25.604;2022-08-27T08:11:44;17.05;;;5.80;;
39156;SDS011;24889;42.424;25.604;2022-08-27T08:16:35;22.23;;;6.53;;
39156;SDS011;24889;42.424;25.604;2022-08-27T08:21:26;12.13;;;5.30;;
39156;SDS011;24889;42.424;25.604;2022-08-27T08:26:17;18.20;;;5.80;;
39156;SDS011;24889;42.424;25.604;2022-08-27T08:31:08;17.45;;;5.32;;
39156;SDS011;24889;42.424;25.604;2022-08-27T08:36:07;19.15;;;5.40;;
39156;SDS011;24889;42.424;25.604;2022-08-27T08:44:34;21.75;;;5.97;;
39156;SDS011;24889;42.424;25.604;2022-08-27T08:49:48;23.85;;;6.05;;
39156;SDS011;24889;42.424;25.604;2022-08-27T08:52:28;25.45;;;6.10;;
39156;SDS011;24889;42.424;25.604;2022-08-27T08:57:45;20.70;;;6.60;;
39156;SDS011;24889;42.424;25.604;2022-08-27T09:00:15;23.02;;;6.22;;
39156;SDS011;24889;42.424;25.604;2022-08-27T09:02:44;23.63;;;6.18;;
39156;SDS011;24889;42.424;25.604;2022-08-27T09:05:14;22.83;;;6.07;;
39156;SDS011;24889;42.424;25.604;2022-08-27T09:10:53;19.02;;;6.55;;
39156;SDS011;24889;42.424;25.604;2022-08-27T09:13:24;23.65;;;5.38;;
39156;SDS011;24889;42.424;25.604;2022-08-27T09:15:56;13.88;;;4.82;;
39156;SDS011;24889;42.424;25.604;2022-08-27T09:18:25;17.73;;;5.05;;
39156;SDS011;24889;42.424;25.604;2022-08-27T09:20:57;16.45;;;4.97;;
39156;SDS011;24889;42.424;25.604;2022-08-27T09:23:43;21.52;;;5.85;;
39156;SDS011;24889;42.424;25.604;2022-08-27T09:26:27;20.88;;;5.47;;
39156;SDS011;24889;42.424;25.604;2022-08-27T09:28:55;25.52;;;5.40;;
39156;SDS011;24889;42.424;25.604;2022-08-27T09:31:40;20.58;;;6.80;;
39156;SDS011;24889;42.424;25.604;2022-08-27T09:34:07;16.85;;;5.70;;
39156;SDS011;24889;42.424;25.604;2022-08-27T09:36:33;25.98;;;5.80;;
39156;SDS011;24889;42.424;25.604;2022-08-27T09:38:59;15.68;;;5.20;;
39156;SDS011;24889;42.424;25.604;2022-08-27T09:41:31;24.77;;;5.70;;
39156;SDS011;24889;42.424;25.604;2022-08-27T09:44:07;19.95;;;5.25;;
39156;SDS011;24889;42.424;25.604;2022-08-27T09:46:35;19.27;;;5.63;;
39156;SDS011;24889;42.424;25.604;2022-08-27T09:49:11;35.25;;;6.03;;
39156;SDS011;24889;42.424;25.604;2022-08-27T09:51:39;25.25;;;5.32;;
39156;SDS011;24889;42.424;25.604;2022-08-27T09:54:07;21.35;;;7.07;;
39156;SDS011;24889;42.424;25.604;2022-08-27T09:56:35;21.90;;;6.05;;
39156;SDS011;24889;42.424;25.604;2022-08-27T10:02:03;32.33;;;5.85;;
39156;SDS011;24889;42.424;25.604;2022-08-27T10:13:04;25.02;;;5.93;;
39156;SDS011;24889;42.424;25.604;2022-08-27T10:18:34;25.03;;;5.33;;
39156;SDS011;24889;42.424;25.604;2022-08-27T10:21:21;25.85;;;5.53;;
39156;SDS011;24889;42.424;25.604;2022-08-27T10:24:01;27.83;;;5.93;;
39156;SDS011;24889;42.424;25.604;2022-08-27T10:29:58;21.80;;;5.75;;
39156;SDS011;24889;42.424;25.604;2022-08-27T10:38:14;24.80;;;5.25;;
39156;SDS011;24889;42.424;25.604;2022-08-27T10:46:02;19.35;;;5.70;;
39156;SDS011;24889;42.424;25.604;2022-08-27T10:55:06;24.92;;;6.15;;
39156;SDS011;24889;42.424;25.604;2022-08-27T11:00:12;17.17;;;5.50;;
39156;SDS011;24889;42.424;25.604;2022-08-27T11:02:47;13.35;;;5.32;;
39156;SDS011;24889;42.424;25.604;2022-08-27T11:05:25;16.38;;;5.78;;
39156;SDS011;24889;42.424;25.604;2022-08-27T11:08:31;18.27;;;5.85;;
39156;SDS011;24889;42.424;25.604;2022-08-27T11:11:05;20.10;;;5.55;;
39156;SDS011;24889;42.424;25.604;2022-08-27T11:13:38;18.65;;;5.25;;
39156;SDS011;24889;42.424;25.604;2022-08-27T11:16:19;18.33;;;4.78;;
39156;SDS011;24889;42.424;25.604;2022-08-27T11:18:50;18.10;;;4.97;;
39156;SDS011;24889;42.424;25.604;2022-08-27T11:22:01;17.85;;;5.20;;
39156;SDS011;24889;42.424;25.604;2022-08-27T11:24:37;19.85;;;6.22;;
39156;SDS011;24889;42.424;25.604;2022-08-27T11:27:14;22.52;;;6.03;;
39156;SDS011;24889;42.424;25.604;2022-08-27T11:32:39;16.65;;;5.00;;
39156;SDS011;24889;42.424;25.604;2022-08-27T11:35:21;25.33;;;4.75;;
39156;SDS011;24889;42.424;25.604;2022-08-27T11:41:15;15.57;;;4.45;;
39156;SDS011;24889;42.424;25.604;2022-08-27T11:43:52;14.30;;;4.75;;
39156;SDS011;24889;42.424;25.604;2022-08-27T11:46:23;19.48;;;4.93;;
39156;SDS011;24889;42.424;25.604;2022-08-27T11:48:55;18.42;;;5.57;;
39156;SDS011;24889;42.424;25.604;2022-08-27T11:51:33;17.98;;;6.32;;
39156;SDS011;24889;42.424;25.604;2022-08-27T11:54:02;22.83;;;5.43;;
39156;SDS011;24889;42.424;25.604;2022-08-27T11:56:38;20.98;;;5.28;;
39156;SDS011;24889;42.424;25.604;2022-08-27T11:59:08;19.20;;;5.10;;
39156;SDS011;24889;42.424;25.604;2022-08-27T12:01:53;18.55;;;4.22;;
39156;SDS011;24889;42.424;25.604;2022-08-27T12:06:59;12.32;;;4.80;;
39156;SDS011;24889;42.424;25.604;2022-08-27T12:09:47;17.95;;;5.28;;
39156;SDS011;24889;42.424;25.604;2022-08-27T12:15:24;18.27;;;4.93;;
39156;SDS011;24889;42.424;25.604;2022-08-27T12:27:23;18.67;;;4.65;;
39156;SDS011;24889;42.424;25.604;2022-08-27T12:32:49;13.63;;;4.60;;
39156;SDS011;24889;42.424;25.604;2022-08-27T12:36:02;24.98;;;5.47;;
39156;SDS011;24889;42.424;25.604;2022-08-27T12:38:32;16.27;;;5.07;;
39156;SDS011;24889;42.424;25.604;2022-08-27T12:41:06;25.05;;;6.07;;
39156;SDS011;24889;42.424;25.604;2022-08-27T12:43:36;19.30;;;6.10;;
39156;SDS011;24889;42.424;25.604;2022-08-27T12:46:17;17.45;;;5.75;;
39156;SDS011;24889;42.424;25.604;2022-08-27T12:56:48;11.90;;;5.30;;
39156;SDS011;24889;42.424;25.604;2022-08-27T13:05:09;18.17;;;5.53;;
39156;SDS011;24889;42.424;25.604;2022-08-27T13:07:40;19.23;;;4.95;;
39156;SDS011;24889;42.424;25.604;2022-08-27T13:10:09;16.10;;;5.28;;
39156;SDS011;24889;42.424;25.604;2022-08-27T13:12:38;24.67;;;6.25;;
39156;SDS011;24889;42.424;25.604;2022-08-27T13:15:05;18.35;;;5.00;;
39156;SDS011;24889;42.424;25.604;2022-08-27T13:17:34;17.38;;;5.28;;
39156;SDS011;24889;42.424;25.604;2022-08-27T13:20:10;19.58;;;5.47;;
39156;SDS011;24889;42.424;25.604;2022-08-27T13:22:38;19.80;;;5.68;;
39156;SDS011;24889;42.424;25.604;2022-08-27T13:25:18;17.80;;;5.65;;
39156;SDS011;24889;42.424;25.604;2022-08-27T13:27:50;15.88;;;5.05;;
39156;SDS011;24889;42.424;25.604;2022-08-27T13:30:18;25.33;;;5.65;;
39156;SDS011;24889;42.424;25.604;2022-08-27T13:32:43;17.63;;;5.78;;
39156;SDS011;24889;42.424;25.604;2022-08-27T13:35:09;19.10;;;6.07;;
39156;SDS011;24889;42.424;25.604;2022-08-27T13:37:40;25.98;;;5.30;;
39156;SDS011;24889;42.424;25.604;2022-08-27T13:40:10;15.18;;;5.18;;
39156;SDS011;24889;42.424;25.604;2022-08-27T13:42:55;14.90;;;5.97;;
39156;SDS011;24889;42.424;25.604;2022-08-27T13:45:27;13.15;;;4.63;;
39156;SDS011;24889;42.424;25.604;2022-08-27T13:47:53;19.80;;;5.20;;
39156;SDS011;24889;42.424;25.604;2022-08-27T13:50:20;12.82;;;4.53;;
39156;SDS011;24889;42.424;25.604;2022-08-27T13:52:47;16.92;;;5.28;;
39156;SDS011;24889;42.424;25.604;2022-08-27T13:55:31;29.05;;;4.93;;
39156;SDS011;24889;42.424;25.604;2022-08-27T13:57:57;15.98;;;4.57;;
39156;SDS011;24889;42.424;25.604;2022-08-27T14:00:29;19.38;;;5.80;;
39156;SDS011;24889;42.424;25.604;2022-08-27T14:02:57;21.70;;;5.60;;
39156;SDS011;24889;42.424;25.604;2022-08-27T14:10:29;15.18;;;5.32;;
39156;SDS011;24889;42.424;25.604;2022-08-27T14:13:03;15.57;;;4.88;;
39156;SDS011;24889;42.424;25.604;2022-08-27T14:15:34;18.70;;;5.30;;
39156;SDS011;24889;42.424;25.604;2022-08-27T14:18:03;18.95;;;5.28;;
39156;SDS011;24889;42.424;25.604;2022-08-27T14:20:31;14.35;;;5.00;;
39156;SDS011;24889;42.424;25.604;2022-08-27T14:22:58;22.17;;;6.68;;
39156;SDS011;24889;42.424;25.604;2022-08-27T14:25:23;20.60;;;6.15;;
39156;SDS011;24889;42.424;25.604;2022-08-27T14:27:50;23.58;;;6.20;;
39156;SDS011;24889;42.424;25.604;2022-08-27T14:30:18;19.90;;;5.80;;
39156;SDS011;24889;42.424;25.604;2022-08-27T14:32:46;21.30;;;5.20;;
39156;SDS011;24889;42.424;25.604;2022-08-27T14:35:13;13.38;;;4.80;;
39156;SDS011;24889;42.424;25.604;2022-08-27T14:37:40;19.02;;;4.78;;
39156;SDS011;24889;42.424;25.604;2022-08-27T14:40:07;15.23;;;5.60;;
39156;SDS011;24889;42.424;25.604;2022-08-27T14:42:35;19.65;;;4.93;;
39156;SDS011;24889;42.424;25.604;2022-08-27T14:45:01;10.68;;;4.88;;
39156;SDS011;24889;42.424;25.604;2022-08-27T14:47:26;17.92;;;6.45;;
39156;SDS011;24889;42.424;25.604;2022-08-27T14:49:52;24.83;;;5.85;;
39156;SDS011;24889;42.424;25.604;2022-08-27T14:52:18;16.88;;;6.25;;
39156;SDS011;24889;42.424;25.604;2022-08-27T14:54:44;17.42;;;6.20;;
39156;SDS011;24889;42.424;25.604;2022-08-27T14:57:09;18.00;;;6.03;;
39156;SDS011;24889;42.424;25.604;2022-08-27T14:59:36;19.60;;;6.53;;
39156;SDS011;24889;42.424;25.604;2022-08-27T15:02:04;18.63;;;5.90;;
39156;SDS011;24889;42.424;25.604;2022-08-27T15:04:32;11.90;;;4.88;;
39156;SDS011;24889;42.424;25.604;2022-08-27T15:06:57;15.23;;;6.72;;
39156;SDS011;24889;42.424;25.604;2022-08-27T15:09:23;17.45;;;5.07;;
39156;SDS011;24889;42.424;25.604;2022-08-27T15:11:49;16.73;;;6.78;;
39156;SDS011;24889;42.424;25.604;2022-08-27T15:14:26;13.77;;;6.22;;
39156;SDS011;24889;42.424;25.604;2022-08-27T15:16:55;15.02;;;5.47;;
39156;SDS011;24889;42.424;25.604;2022-08-27T15:19:21;18.35;;;6.38;;
39156;SDS011;24889;42.424;25.604;2022-08-27T15:21:48;16.10;;;6.85;;
39156;SDS011;24889;42.424;25.604;2022-08-27T15:24:19;16.83;;;5.32;;
39156;SDS011;24889;42.424;25.604;2022-08-27T15:26:47;21.42;;;6.60;;
39156;SDS011;24889;42.424;25.604;2022-08-27T15:29:14;17.02;;;5.43;;
39156;SDS011;24889;42.424;25.604;2022-08-27T15:31:40;18.02;;;5.78;;
39156;SDS011;24889;42.424;25.604;2022-08-27T15:34:06;16.50;;;5.65;;
39156;SDS011;24889;42.424;25.604;2022-08-27T15:36:32;21.02;;;5.60;;
39156;SDS011;24889;42.424;25.604;2022-08-27T15:38:58;24.55;;;7.03;;
39156;SDS011;24889;42.424;25.604;2022-08-27T15:41:24;20.33;;;7.47;;
39156;SDS011;24889;42.424;25.604;2022-08-27T15:43:49;14.82;;;5.55;;
39156;SDS011;24889;42.424;25.604;2022-08-27T15:46:15;13.07;;;4.70;;
39156;SDS011;24889;42.424;25.604;2022-08-27T15:48:40;12.80;;;5.28;;
39156;SDS011;24889;42.424;25.604;2022-08-27T15:51:07;13.18;;;5.30;;
39156;SDS011;24889;42.424;25.604;2022-08-27T15:53:35;23.35;;;9.68;;
39156;SDS011;24889;42.424;25.604;2022-08-27T15:56:02;14.75;;;5.75;;
39156;SDS011;24889;42.424;25.604;2022-08-27T15:58:30;18.65;;;6.43;;
39156;SDS011;24889;42.424;25.604;2022-08-27T16:01:01;15.38;;;6.68;;
39156;SDS011;24889;42.424;25.604;2022-08-27T16:03:33;21.75;;;6.25;;
39156;SDS011;24889;42.424;25.604;2022-08-27T16:05:59;16.17;;;5.75;;
39156;SDS011;24889;42.424;25.604;2022-08-27T16:08:25;21.98;;;5.88;;
39156;SDS011;24889;42.424;25.604;2022-08-27T16:10:50;21.63;;;6.72;;
39156;SDS011;24889;42.424;25.604;2022-08-27T16:13:16;21.42;;;6.35;;
39156;SDS011;24889;42.424;25.604;2022-08-27T16:15:42;22.23;;;6.43;;
39156;SDS011;24889;42.424;25.604;2022-08-27T16:18:08;21.17;;;6.68;;
39156;SDS011;24889;42.424;25.604;2022-08-27T16:20:34;20.00;;;6.45;;
39156;SDS011;24889;42.424;25.604;2022-08-27T16:23:00;21.30;;;6.10;;
39156;SDS011;24889;42.424;25.604;2022-08-27T16:25:25;30.08;;;8.68;;
39156;SDS011;24889;42.424;25.604;2022-08-27T16:30:18;22.33;;;9.98;;
39156;SDS011;24889;42.424;25.604;2022-08-27T16:32:45;18.45;;;9.27;;
39156;SDS011;24889;42.424;25.604;2022-08-27T16:35:13;23.63;;;8.73;;
39156;SDS011;24889;42.424;25.604;2022-08-27T16:37:39;17.85;;;8.07;;
39156;SDS011;24889;42.424;25.604;2022-08-27T16:40:06;25.05;;;7.45;;
39156;SDS011;24889;42.424;25.604;2022-08-27T16:42:32;19.40;;;6.15;;
39156;SDS011;24889;42.424;25.604;2022-08-27T16:44:58;17.02;;;6.95;;
39156;SDS011;24889;42.424;25.604;2022-08-27T16:47:24;17.95;;;7.60;;
39156;SDS011;24889;42.424;25.604;2022-08-27T16:49:49;27.75;;;8.05;;
39156;SDS011;24889;42.424;25.604;2022-08-27T16:52:34;13.85;;;6.25;;
39156;SDS011;24889;42.424;25.604;2022-08-27T16:57:25;21.33;;;6.97;;
39156;SDS011;24889;42.424;25.604;2022-08-27T17:02:24;22.63;;;7.47;;
39156;SDS011;24889;42.424;25.604;2022-08-27T17:04:52;26.27;;;7.28;;
39156;SDS011;24889;42.424;25.604;2022-08-27T17:09:47;18.02;;;6.20;;
39156;SDS011;24889;42.424;25.604;2022-08-27T17:14:43;19.33;;;5.70;;
39156;SDS011;24889;42.424;25.604;2022-08-27T17:17:10;32.42;;;7.20;;
39156;SDS011;24889;42.424;25.604;2022-08-27T17:19:37;18.23;;;5.32;;
39156;SDS011;24889;42.424;25.604;2022-08-27T17:24:29;21.33;;;6.85;;